Orlando, Florida
Traffic Map
Current Weather Conditions
Orlando, Florida
Few Clouds
Few Clouds
22°
Feels Like: 22°
Wind Chill: 22° Ceiling: Unl
Heat Index: 22° Visibility: 10mi
Dew Point: 14° Wind: 18mph
Humidity: 61% Direction: 90° (E)
Pressure: 30.27in Gusts: 0mph
Raw Report DataKORL 242353Z 09016KT 10SM FEW060 22/14 A3027 RMK AO2 SLP255 T02170139 10261 20211 55000
Traffic Incident Summary
Active as of:
Severity:
Category:
InformationThere was an issue retrieving the traffic information for this location. Please try a different location or try again shortly.
Advertisements
Track Severe Weather on mobile